Time;durP1;ratioP1;P1;durP2;ratioP2;P2;SDS_P1;SDS_P2;PMS_P1;PMS_P2;Temp;Humidity;BMP_temperature;BMP_pressure;BME280_temperature;BME280_humidity;BME280_pressure;Samples;Min_cycle;Max_cycle;Signal;HPM_P1;HPM_P2
2022/12/17 13:15:36;;;;;;;35.25;17.63;;;1.50;99.90;;;;;;20516342;28;20214;-40
2022/12/17 13:25:37;;;;;;;31.42;15.65;;;1.30;99.90;;;;;;20508788;28;20170;-40
2022/12/17 13:35:53;;;;;;;37.47;20.27;;;1.10;99.90;;;;;;20485940;28;20273;-42
2022/12/17 13:45:54;;;;;;;40.58;18.48;;;1.00;99.90;;;;;;20512353;28;21032;-41
2022/12/17 13:55:57;;;;;;;40.63;19.02;;;0.40;99.90;;;;;;20473754;28;20519;-42
2022/12/17 14:05:58;;;;;;;32.08;17.02;;;0.40;99.90;;;;;;20514827;28;20034;-42
2022/12/17 14:15:59;;;;;;;33.83;19.15;;;0.60;99.90;;;;;;20524448;28;20419;-41
2022/12/17 14:26:00;;;;;;;39.38;18.70;;;0.30;99.90;;;;;;20531687;28;20659;-41
2022/12/17 14:36:22;;;;;;;36.00;18.08;;;0.00;99.90;;;;;;20536141;28;20105;-42
2022/12/17 14:46:24;;;;;;;31.15;17.95;;;-0.20;99.90;;;;;;20521352;28;20647;-42
2022/12/17 14:56:27;;;;;;;39.85;18.65;;;-0.20;99.90;;;;;;20515737;28;20071;-42
2022/12/17 15:06:28;;;;;;;32.80;16.65;;;-0.10;99.90;;;;;;20532170;28;20054;-42
2022/12/17 15:16:30;;;;;;;33.15;15.93;;;-0.10;99.90;;;;;;20531144;28;20363;-42
2022/12/17 15:26:32;;;;;;;36.22;15.48;;;-0.20;99.90;;;;;;20524032;28;20051;-42
2022/12/17 15:36:33;;;;;;;28.75;15.25;;;-0.30;99.90;;;;;;20529211;28;20061;-42
2022/12/17 15:46:34;;;;;;;42.95;17.33;;;-0.50;99.90;;;;;;20530237;28;20047;-42
2022/12/17 15:56:36;;;;;;;32.65;18.77;;;-0.50;99.90;;;;;;20526040;28;20553;-42
2022/12/17 16:06:37;;;;;;;28.60;16.58;;;-0.60;99.90;;;;;;20525148;28;20039;-42
2022/12/17 16:16:38;;;;;;;38.00;20.25;;;-0.90;99.90;;;;;;20530165;28;20045;-42
2022/12/17 16:26:39;;;;;;;32.28;19.00;;;-0.90;99.90;;;;;;20524777;28;20454;-42
2022/12/17 16:36:40;;;;;;;41.10;18.58;;;-0.90;99.90;;;;;;20513499;28;20095;-42
2022/12/17 16:46:42;;;;;;;35.63;17.35;;;-1.00;99.90;;;;;;20454035;28;20121;-42
2022/12/17 16:56:45;;;;;;;56.63;21.88;;;-1.00;99.90;;;;;;20464301;28;20055;-42
2022/12/17 17:06:52;;;;;;;39.78;17.35;;;-1.10;99.90;;;;;;20465924;28;20051;-42
2022/12/17 17:16:53;;;;;;;50.35;20.70;;;-1.20;99.90;;;;;;20467946;28;20332;-41
2022/12/17 17:26:54;;;;;;;32.42;19.15;;;-1.30;99.90;;;;;;20458423;28;20064;-41
2022/12/17 17:36:55;;;;;;;34.63;17.35;;;-1.40;99.90;;;;;;20451384;28;20508;-42
2022/12/17 17:46:56;;;;;;;32.65;16.77;;;-1.50;99.90;;;;;;20389814;28;20046;-42
2022/12/17 17:56:57;;;;;;;44.17;17.67;;;-1.40;99.90;;;;;;20397243;28;21216;-42
2022/12/17 18:06:58;;;;;;;35.22;16.30;;;-1.40;99.90;;;;;;20411293;28;20113;-42
2022/12/17 18:16:59;;;;;;;48.72;16.42;;;-1.30;99.90;;;;;;20391253;28;20044;-42
2022/12/17 18:27:00;;;;;;;40.63;16.90;;;-1.20;99.90;;;;;;20399738;28;20054;-42
2022/12/17 18:37:04;;;;;;;34.58;16.80;;;-1.40;99.90;;;;;;20450447;28;20356;-42
2022/12/17 18:47:05;;;;;;;42.97;19.27;;;-1.40;99.90;;;;;;20433173;28;20827;-42
2022/12/17 18:57:06;;;;;;;37.05;19.10;;;-1.50;99.90;;;;;;20470333;28;20047;-42
2022/12/17 19:07:07;;;;;;;42.50;17.83;;;-1.70;99.90;;;;;;20508235;28;20046;-42
2022/12/17 19:17:08;;;;;;;37.63;19.65;;;-1.70;99.90;;;;;;20497861;28;20130;-41
2022/12/17 19:27:09;;;;;;;45.50;19.70;;;-1.60;99.90;;;;;;20471700;28;20055;-41
2022/12/17 19:37:11;;;;;;;35.95;18.95;;;-1.70;99.90;;;;;;20449873;28;20055;-42
2022/12/17 19:47:12;;;;;;;35.83;18.58;;;-1.70;99.90;;;;;;20449752;28;20110;-42
2022/12/17 19:57:13;;;;;;;50.80;19.77;;;-1.80;99.90;;;;;;20449837;28;20051;-42
2022/12/17 20:07:14;;;;;;;45.53;20.08;;;-1.70;99.90;;;;;;20449264;28;20047;-42
2022/12/17 20:17:15;;;;;;;35.17;18.92;;;-1.70;99.90;;;;;;20415765;28;20273;-41
2022/12/17 20:27:16;;;;;;;41.72;20.60;;;-2.10;99.90;;;;;;20435712;28;20039;-42
2022/12/17 20:37:17;;;;;;;69.25;26.42;;;-2.20;99.90;;;;;;20442370;28;20050;-41
2022/12/17 20:47:18;;;;;;;39.80;19.05;;;-2.30;99.90;;;;;;20514856;28;20197;-42
2022/12/17 20:57:19;;;;;;;48.35;24.52;;;-2.10;99.90;;;;;;20492152;28;20272;-42
2022/12/17 21:07:20;;;;;;;52.65;25.52;;;-2.10;99.90;;;;;;20489802;28;20079;-42
2022/12/17 21:17:21;;;;;;;58.88;20.70;;;-2.20;99.90;;;;;;20489832;28;20217;-42
2022/12/17 21:27:22;;;;;;;46.20;22.08;;;-2.10;99.90;;;;;;20503940;28;20086;-42
2022/12/17 21:37:23;;;;;;;62.30;24.08;;;-2.00;99.90;;;;;;20513112;28;20077;-42
2022/12/17 21:47:24;;;;;;;46.38;19.80;;;-2.00;99.90;;;;;;20503953;28;20073;-42
2022/12/17 21:57:25;;;;;;;43.80;19.70;;;-2.10;99.90;;;;;;20508286;28;21625;-42
2022/12/17 22:07:27;;;;;;;46.38;24.13;;;-2.20;99.90;;;;;;20522254;28;20136;-42
2022/12/17 22:17:28;;;;;;;40.08;19.73;;;-2.30;99.90;;;;;;20536317;28;20510;-42
2022/12/17 22:27:30;;;;;;;55.03;22.27;;;-2.30;99.90;;;;;;20543717;28;20498;-42
2022/12/17 22:37:31;;;;;;;49.20;20.88;;;-2.20;99.90;;;;;;20532252;28;20059;-42
2022/12/17 22:47:32;;;;;;;37.92;21.95;;;-2.40;99.90;;;;;;20525479;28;20034;-42
2022/12/17 22:57:33;;;;;;;40.17;22.55;;;-2.50;99.90;;;;;;20517818;28;20120;-42
2022/12/17 23:07:34;;;;;;;36.55;18.08;;;-2.40;99.90;;;;;;20515457;28;20474;-42
2022/12/17 23:17:35;;;;;;;43.80;19.75;;;-2.30;99.90;;;;;;20510480;28;20188;-41
2022/12/17 23:27:37;;;;;;;42.97;19.15;;;-2.30;99.90;;;;;;20516234;28;20127;-42
2022/12/17 23:37:39;;;;;;;37.00;16.83;;;-2.50;99.90;;;;;;20509767;28;20062;-42
2022/12/17 23:47:40;;;;;;;36.95;18.20;;;-2.40;99.90;;;;;;20511101;28;20075;-42
2022/12/17 23:57:41;;;;;;;49.67;17.98;;;-2.60;99.90;;;;;;20512312;28;20074;-41
